SBGO/GYN METAR and TAF weather

Enter ICAO airport designator
Station Type Date Time Source
SBGO METAR 2019/06/26 20:00 UTC NOAA

SBGO 262000Z 31008KT CAVOK 29/09 Q1017


Station Type Date Time Source
SBGO Decoded METAR 2019/06/26 20:00 UTC NOAA

Goiania Aeroporto , Brazil (SBGO) 16-38S 049-13W
Jun 26, 2019 - 04:00 PM EDT / 2019.06.26 2000 UTC
Wind: from the NW (310 degrees) at 9 MPH (8 KT):0
Visibility: greater than 7 mile(s):0
Temperature: 84 F (29 C)
Dew Point: 48 F (9 C)
Relative Humidity: 28%
Pressure (altimeter): 30.03 in. Hg (1017 hPa)
ob: SBGO 262000Z 31008KT CAVOK 29/09 Q1017
cycle: 20

Station Type Date Time Source
SBGO TAF 2019/06/26 18:45 UTC NOAA

TAF TAF SBGO 261600Z 2618/2718 32008KT 9999 FEW045 TX30/2618Z TN19/2707Z CAVOK
BECMG 2714/2715 SCT040
RMK PCQ

Example: see airport list